sensor_id;sensor_type;location;lat;lon;timestamp;temperature;humidity
34406;DHT22;20658;45.630;8.886;2022-07-19T00:00:57;26.80;50.30
34406;DHT22;20658;45.630;8.886;2022-07-19T00:03:31;26.70;50.30
34406;DHT22;20658;45.630;8.886;2022-07-19T00:06:06;26.70;50.50
34406;DHT22;20658;45.630;8.886;2022-07-19T00:08:39;26.70;50.40
34406;DHT22;20658;45.630;8.886;2022-07-19T00:11:12;26.70;50.20
34406;DHT22;20658;45.630;8.886;2022-07-19T00:13:46;26.70;50.00
34406;DHT22;20658;45.630;8.886;2022-07-19T00:16:19;26.60;50.30
34406;DHT22;20658;45.630;8.886;2022-07-19T00:18:53;26.60;50.20
34406;DHT22;20658;45.630;8.886;2022-07-19T00:21:28;26.60;50.00
34406;DHT22;20658;45.630;8.886;2022-07-19T00:24:01;26.50;50.40
34406;DHT22;20658;45.630;8.886;2022-07-19T00:26:34;26.50;50.20
34406;DHT22;20658;45.630;8.886;2022-07-19T00:29:08;26.50;50.60
34406;DHT22;20658;45.630;8.886;2022-07-19T00:31:42;26.50;50.70
34406;DHT22;20658;45.630;8.886;2022-07-19T00:34:11;26.50;50.60
34406;DHT22;20658;45.630;8.886;2022-07-19T00:36:46;26.50;50.80
34406;DHT22;20658;45.630;8.886;2022-07-19T00:39:19;26.40;51.10
34406;DHT22;20658;45.630;8.886;2022-07-19T00:41:52;26.40;51.30
34406;DHT22;20658;45.630;8.886;2022-07-19T00:44:26;26.40;51.30
34406;DHT22;20658;45.630;8.886;2022-07-19T00:47:00;26.40;51.20
34406;DHT22;20658;45.630;8.886;2022-07-19T00:49:33;26.40;51.40
34406;DHT22;20658;45.630;8.886;2022-07-19T00:52:09;26.40;51.50
34406;DHT22;20658;45.630;8.886;2022-07-19T00:54:43;26.30;51.90
34406;DHT22;20658;45.630;8.886;2022-07-19T00:57:18;26.30;52.20
34406;DHT22;20658;45.630;8.886;2022-07-19T00:59:53;26.30;52.50
34406;DHT22;20658;45.630;8.886;2022-07-19T01:02:29;26.20;52.30
34406;DHT22;20658;45.630;8.886;2022-07-19T01:05:03;26.20;52.40
34406;DHT22;20658;45.630;8.886;2022-07-19T01:07:39;26.10;52.70
34406;DHT22;20658;45.630;8.886;2022-07-19T01:10:14;26.10;52.70
34406;DHT22;20658;45.630;8.886;2022-07-19T01:12:48;26.10;52.70
34406;DHT22;20658;45.630;8.886;2022-07-19T01:15:23;26.10;52.70
34406;DHT22;20658;45.630;8.886;2022-07-19T01:17:58;26.10;52.70
34406;DHT22;20658;45.630;8.886;2022-07-19T01:20:32;26.00;53.10
34406;DHT22;20658;45.630;8.886;2022-07-19T01:23:07;26.00;53.00
34406;DHT22;20658;45.630;8.886;2022-07-19T01:25:40;26.00;52.90
34406;DHT22;20658;45.630;8.886;2022-07-19T01:28:14;26.00;52.70
34406;DHT22;20658;45.630;8.886;2022-07-19T01:30:47;26.00;52.70
34406;DHT22;20658;45.630;8.886;2022-07-19T01:33:22;25.90;52.20
34406;DHT22;20658;45.630;8.886;2022-07-19T01:35:56;25.90;52.50
34406;DHT22;20658;45.630;8.886;2022-07-19T01:38:30;25.90;52.20
34406;DHT22;20658;45.630;8.886;2022-07-19T01:41:04;25.90;52.60
34406;DHT22;20658;45.630;8.886;2022-07-19T01:43:38;25.80;52.60
34406;DHT22;20658;45.630;8.886;2022-07-19T01:46:11;25.90;52.90
34406;DHT22;20658;45.630;8.886;2022-07-19T01:48:45;25.80;52.90
34406;DHT22;20658;45.630;8.886;2022-07-19T01:51:18;25.80;52.90
34406;DHT22;20658;45.630;8.886;2022-07-19T01:53:53;25.90;52.80
34406;DHT22;20658;45.630;8.886;2022-07-19T01:56:26;25.80;52.80
34406;DHT22;20658;45.630;8.886;2022-07-19T01:59:00;25.80;52.60
34406;DHT22;20658;45.630;8.886;2022-07-19T02:01:33;25.80;52.60
34406;DHT22;20658;45.630;8.886;2022-07-19T02:04:07;25.80;52.60
34406;DHT22;20658;45.630;8.886;2022-07-19T02:06:43;25.80;52.60
34406;DHT22;20658;45.630;8.886;2022-07-19T02:09:17;25.80;52.50
34406;DHT22;20658;45.630;8.886;2022-07-19T02:11:51;25.80;52.30
34406;DHT22;20658;45.630;8.886;2022-07-19T02:14:24;25.80;52.40
34406;DHT22;20658;45.630;8.886;2022-07-19T02:16:58;25.90;52.20
34406;DHT22;20658;45.630;8.886;2022-07-19T02:19:32;25.80;52.20
34406;DHT22;20658;45.630;8.886;2022-07-19T02:22:05;25.80;52.20
34406;DHT22;20658;45.630;8.886;2022-07-19T02:24:40;25.80;52.10
34406;DHT22;20658;45.630;8.886;2022-07-19T02:27:14;25.90;52.10
34406;DHT22;20658;45.630;8.886;2022-07-19T02:29:48;25.90;52.00
34406;DHT22;20658;45.630;8.886;2022-07-19T02:32:21;25.90;51.80
34406;DHT22;20658;45.630;8.886;2022-07-19T02:34:55;25.90;51.90
34406;DHT22;20658;45.630;8.886;2022-07-19T02:37:28;25.90;51.80
34406;DHT22;20658;45.630;8.886;2022-07-19T02:40:04;25.80;51.20
34406;DHT22;20658;45.630;8.886;2022-07-19T02:42:39;25.80;51.30
34406;DHT22;20658;45.630;8.886;2022-07-19T02:45:12;25.80;51.20
34406;DHT22;20658;45.630;8.886;2022-07-19T02:47:45;25.80;51.10
34406;DHT22;20658;45.630;8.886;2022-07-19T02:50:20;25.80;50.90
34406;DHT22;20658;45.630;8.886;2022-07-19T02:52:53;25.80;50.60
34406;DHT22;20658;45.630;8.886;2022-07-19T02:55:28;25.80;50.00
34406;DHT22;20658;45.630;8.886;2022-07-19T02:58:02;25.90;50.10
34406;DHT22;20658;45.630;8.886;2022-07-19T03:00:36;25.80;50.00
34406;DHT22;20658;45.630;8.886;2022-07-19T03:03:10;25.80;50.00
34406;DHT22;20658;45.630;8.886;2022-07-19T03:06:00;25.90;49.70
34406;DHT22;20658;45.630;8.886;2022-07-19T03:08:34;25.90;50.00
34406;DHT22;20658;45.630;8.886;2022-07-19T03:11:09;25.90;49.90
34406;DHT22;20658;45.630;8.886;2022-07-19T03:13:43;25.90;50.00
34406;DHT22;20658;45.630;8.886;2022-07-19T03:16:16;25.90;50.10
34406;DHT22;20658;45.630;8.886;2022-07-19T03:18:50;25.90;50.40
34406;DHT22;20658;45.630;8.886;2022-07-19T03:21:23;25.90;50.50
34406;DHT22;20658;45.630;8.886;2022-07-19T03:23:57;25.90;50.70
34406;DHT22;20658;45.630;8.886;2022-07-19T03:26:32;25.90;50.70
34406;DHT22;20658;45.630;8.886;2022-07-19T03:29:05;25.90;50.50
34406;DHT22;20658;45.630;8.886;2022-07-19T03:31:38;25.90;50.80
34406;DHT22;20658;45.630;8.886;2022-07-19T03:34:12;25.90;51.00
34406;DHT22;20658;45.630;8.886;2022-07-19T03:36:45;25.90;51.00
34406;DHT22;20658;45.630;8.886;2022-07-19T03:39:19;25.80;51.20
34406;DHT22;20658;45.630;8.886;2022-07-19T03:41:54;25.80;51.30
34406;DHT22;20658;45.630;8.886;2022-07-19T03:44:27;25.80;51.60
34406;DHT22;20658;45.630;8.886;2022-07-19T03:47:00;25.80;51.70
34406;DHT22;20658;45.630;8.886;2022-07-19T03:49:34;25.80;51.90
34406;DHT22;20658;45.630;8.886;2022-07-19T03:52:07;25.70;52.20
34406;DHT22;20658;45.630;8.886;2022-07-19T03:54:41;25.60;52.70
34406;DHT22;20658;45.630;8.886;2022-07-19T03:57:16;25.60;53.30
34406;DHT22;20658;45.630;8.886;2022-07-19T03:59:49;25.50;53.80
34406;DHT22;20658;45.630;8.886;2022-07-19T04:02:23;25.50;54.30
34406;DHT22;20658;45.630;8.886;2022-07-19T04:04:56;25.40;54.50
34406;DHT22;20658;45.630;8.886;2022-07-19T04:07:29;25.40;55.10
34406;DHT22;20658;45.630;8.886;2022-07-19T04:10:03;25.40;55.20
34406;DHT22;20658;45.630;8.886;2022-07-19T04:12:38;25.30;55.40
34406;DHT22;20658;45.630;8.886;2022-07-19T04:15:12;25.30;55.60
34406;DHT22;20658;45.630;8.886;2022-07-19T04:17:45;25.30;55.50
34406;DHT22;20658;45.630;8.886;2022-07-19T04:20:19;25.20;55.80
34406;DHT22;20658;45.630;8.886;2022-07-19T04:22:53;25.20;55.60
34406;DHT22;20658;45.630;8.886;2022-07-19T04:25:27;25.20;55.70
34406;DHT22;20658;45.630;8.886;2022-07-19T04:28:03;25.30;55.60
34406;DHT22;20658;45.630;8.886;2022-07-19T04:30:37;25.20;55.70
34406;DHT22;20658;45.630;8.886;2022-07-19T04:33:13;25.20;55.70
34406;DHT22;20658;45.630;8.886;2022-07-19T04:35:47;25.30;55.80
34406;DHT22;20658;45.630;8.886;2022-07-19T04:38:21;25.30;55.80
34406;DHT22;20658;45.630;8.886;2022-07-19T04:40:54;25.30;55.70
34406;DHT22;20658;45.630;8.886;2022-07-19T04:43:24;25.30;55.60
34406;DHT22;20658;45.630;8.886;2022-07-19T04:45:57;25.30;55.50
34406;DHT22;20658;45.630;8.886;2022-07-19T04:48:31;25.30;55.50
34406;DHT22;20658;45.630;8.886;2022-07-19T04:51:05;25.30;55.50
34406;DHT22;20658;45.630;8.886;2022-07-19T04:53:38;25.40;55.50
34406;DHT22;20658;45.630;8.886;2022-07-19T04:56:12;25.40;55.50
34406;DHT22;20658;45.630;8.886;2022-07-19T04:58:47;25.50;55.40
34406;DHT22;20658;45.630;8.886;2022-07-19T05:01:20;25.50;55.30
34406;DHT22;20658;45.630;8.886;2022-07-19T05:03:53;25.60;55.20
34406;DHT22;20658;45.630;8.886;2022-07-19T05:06:27;25.70;55.00
34406;DHT22;20658;45.630;8.886;2022-07-19T05:09:00;25.80;54.90
34406;DHT22;20658;45.630;8.886;2022-07-19T05:11:34;25.80;54.80
34406;DHT22;20658;45.630;8.886;2022-07-19T05:14:08;25.90;54.60
34406;DHT22;20658;45.630;8.886;2022-07-19T05:16:42;26.00;54.50
34406;DHT22;20658;45.630;8.886;2022-07-19T05:19:15;26.00;54.50
34406;DHT22;20658;45.630;8.886;2022-07-19T05:21:49;26.00;54.40
34406;DHT22;20658;45.630;8.886;2022-07-19T05:24:23;26.10;54.20
34406;DHT22;20658;45.630;8.886;2022-07-19T05:26:57;26.20;54.00
34406;DHT22;20658;45.630;8.886;2022-07-19T05:29:32;26.30;53.60
34406;DHT22;20658;45.630;8.886;2022-07-19T05:32:05;26.50;53.10
34406;DHT22;20658;45.630;8.886;2022-07-19T05:34:39;26.60;52.40
34406;DHT22;20658;45.630;8.886;2022-07-19T05:37:12;26.70;51.90
34406;DHT22;20658;45.630;8.886;2022-07-19T05:39:46;26.90;51.30
34406;DHT22;20658;45.630;8.886;2022-07-19T05:42:19;27.10;51.30
34406;DHT22;20658;45.630;8.886;2022-07-19T05:44:54;27.10;51.00
34406;DHT22;20658;45.630;8.886;2022-07-19T05:47:28;27.10;50.90
34406;DHT22;20658;45.630;8.886;2022-07-19T05:50:02;27.10;51.00
34406;DHT22;20658;45.630;8.886;2022-07-19T05:52:35;27.00;51.00
34406;DHT22;20658;45.630;8.886;2022-07-19T05:55:09;27.10;51.00
34406;DHT22;20658;45.630;8.886;2022-07-19T05:57:42;27.10;50.90
34406;DHT22;20658;45.630;8.886;2022-07-19T06:00:17;27.10;50.60
34406;DHT22;20658;45.630;8.886;2022-07-19T06:02:51;27.20;50.50
34406;DHT22;20658;45.630;8.886;2022-07-19T06:05:24;27.20;50.10
34406;DHT22;20658;45.630;8.886;2022-07-19T06:07:58;27.40;49.90
34406;DHT22;20658;45.630;8.886;2022-07-19T06:10:32;27.50;49.60
34406;DHT22;20658;45.630;8.886;2022-07-19T06:13:05;27.70;49.10
34406;DHT22;20658;45.630;8.886;2022-07-19T06:15:40;27.90;48.50
34406;DHT22;20658;45.630;8.886;2022-07-19T06:18:13;28.30;47.80
34406;DHT22;20658;45.630;8.886;2022-07-19T06:20:47;28.70;46.70
34406;DHT22;20658;45.630;8.886;2022-07-19T06:23:20;28.80;46.50
34406;DHT22;20658;45.630;8.886;2022-07-19T06:25:54;28.90;45.70
34406;DHT22;20658;45.630;8.886;2022-07-19T06:28:27;29.20;45.90
34406;DHT22;20658;45.630;8.886;2022-07-19T06:31:02;29.30;45.60
34406;DHT22;20658;45.630;8.886;2022-07-19T06:33:36;29.50;45.00
34406;DHT22;20658;45.630;8.886;2022-07-19T06:36:11;29.90;44.00
34406;DHT22;20658;45.630;8.886;2022-07-19T06:38:44;30.30;42.70
34406;DHT22;20658;45.630;8.886;2022-07-19T06:41:19;30.50;42.50
34406;DHT22;20658;45.630;8.886;2022-07-19T06:43:52;30.60;41.80
34406;DHT22;20658;45.630;8.886;2022-07-19T06:46:27;30.80;40.90
34406;DHT22;20658;45.630;8.886;2022-07-19T06:49:01;31.00;41.30
34406;DHT22;20658;45.630;8.886;2022-07-19T06:51:34;31.20;40.70
34406;DHT22;20658;45.630;8.886;2022-07-19T06:54:08;31.60;40.30
34406;DHT22;20658;45.630;8.886;2022-07-19T06:56:41;31.70;39.30
34406;DHT22;20658;45.630;8.886;2022-07-19T06:59:15;32.00;39.10
34406;DHT22;20658;45.630;8.886;2022-07-19T07:01:50;32.00;38.00
34406;DHT22;20658;45.630;8.886;2022-07-19T07:04:24;32.00;37.70
34406;DHT22;20658;45.630;8.886;2022-07-19T07:06:57;32.30;36.60
34406;DHT22;20658;45.630;8.886;2022-07-19T07:09:31;32.60;36.10
34406;DHT22;20658;45.630;8.886;2022-07-19T07:12:04;32.60;36.00
34406;DHT22;20658;45.630;8.886;2022-07-19T07:14:39;32.60;36.00
34406;DHT22;20658;45.630;8.886;2022-07-19T07:17:14;32.70;34.80
34406;DHT22;20658;45.630;8.886;2022-07-19T07:19:47;32.60;35.10
34406;DHT22;20658;45.630;8.886;2022-07-19T07:22:21;32.30;35.30
34406;DHT22;20658;45.630;8.886;2022-07-19T07:24:54;32.10;35.60
34406;DHT22;20658;45.630;8.886;2022-07-19T07:27:28;32.20;35.90
34406;DHT22;20658;45.630;8.886;2022-07-19T07:30:02;32.20;35.40
34406;DHT22;20658;45.630;8.886;2022-07-19T07:32:37;32.30;35.80
34406;DHT22;20658;45.630;8.886;2022-07-19T07:35:11;32.40;35.70
34406;DHT22;20658;45.630;8.886;2022-07-19T07:37:45;32.20;35.30
34406;DHT22;20658;45.630;8.886;2022-07-19T07:40:18;32.10;35.90
34406;DHT22;20658;45.630;8.886;2022-07-19T07:42:52;32.20;35.90
34406;DHT22;20658;45.630;8.886;2022-07-19T07:45:26;32.00;36.10
34406;DHT22;20658;45.630;8.886;2022-07-19T07:48:01;32.10;36.30
34406;DHT22;20658;45.630;8.886;2022-07-19T07:50:35;32.20;36.40
34406;DHT22;20658;45.630;8.886;2022-07-19T07:53:08;32.70;35.50
34406;DHT22;20658;45.630;8.886;2022-07-19T07:55:42;32.70;35.30
34406;DHT22;20658;45.630;8.886;2022-07-19T07:58:16;32.80;35.40
34406;DHT22;20658;45.630;8.886;2022-07-19T08:00:44;33.00;35.70
34406;DHT22;20658;45.630;8.886;2022-07-19T08:03:19;33.00;35.10
34406;DHT22;20658;45.630;8.886;2022-07-19T08:05:53;32.50;35.00
34406;DHT22;20658;45.630;8.886;2022-07-19T08:08:26;32.40;35.70
34406;DHT22;20658;45.630;8.886;2022-07-19T08:11:00;32.60;35.50
34406;DHT22;20658;45.630;8.886;2022-07-19T08:13:34;32.80;35.00
34406;DHT22;20658;45.630;8.886;2022-07-19T08:16:07;32.80;34.80
34406;DHT22;20658;45.630;8.886;2022-07-19T08:18:42;32.70;34.90
34406;DHT22;20658;45.630;8.886;2022-07-19T08:21:16;32.50;35.30
34406;DHT22;20658;45.630;8.886;2022-07-19T08:23:49;32.70;35.00
34406;DHT22;20658;45.630;8.886;2022-07-19T08:26:23;33.00;35.00
34406;DHT22;20658;45.630;8.886;2022-07-19T08:28:57;33.00;34.90
34406;DHT22;20658;45.630;8.886;2022-07-19T08:31:30;33.00;35.10
34406;DHT22;20658;45.630;8.886;2022-07-19T08:34:05;32.90;34.70
34406;DHT22;20658;45.630;8.886;2022-07-19T08:36:38;32.80;34.80
34406;DHT22;20658;45.630;8.886;2022-07-19T08:39:12;33.00;35.10
34406;DHT22;20658;45.630;8.886;2022-07-19T08:41:45;33.20;34.20
34406;DHT22;20658;45.630;8.886;2022-07-19T08:44:19;33.60;33.20
34406;DHT22;20658;45.630;8.886;2022-07-19T08:46:53;34.00;33.30
34406;DHT22;20658;45.630;8.886;2022-07-19T08:49:28;34.40;32.40
34406;DHT22;20658;45.630;8.886;2022-07-19T08:52:02;34.40;32.20
34406;DHT22;20658;45.630;8.886;2022-07-19T08:54:36;34.30;32.30
34406;DHT22;20658;45.630;8.886;2022-07-19T08:57:09;34.20;32.20
34406;DHT22;20658;45.630;8.886;2022-07-19T09:00:00;34.40;32.00
34406;DHT22;20658;45.630;8.886;2022-07-19T09:02:35;34.40;31.70
34406;DHT22;20658;45.630;8.886;2022-07-19T09:05:10;34.50;31.90
34406;DHT22;20658;45.630;8.886;2022-07-19T09:08:03;34.20;31.50
34406;DHT22;20658;45.630;8.886;2022-07-19T09:10:43;34.20;31.90
34406;DHT22;20658;45.630;8.886;2022-07-19T09:13:38;34.00;32.10
34406;DHT22;20658;45.630;8.886;2022-07-19T09:16:11;33.40;32.40
34406;DHT22;20658;45.630;8.886;2022-07-19T09:18:45;33.50;32.50
34406;DHT22;20658;45.630;8.886;2022-07-19T09:21:20;33.90;32.50
34406;DHT22;20658;45.630;8.886;2022-07-19T09:23:57;34.40;31.70
34406;DHT22;20658;45.630;8.886;2022-07-19T09:26:30;34.60;31.00
34406;DHT22;20658;45.630;8.886;2022-07-19T09:29:16;34.80;30.70
34406;DHT22;20658;45.630;8.886;2022-07-19T09:32:05;35.20;31.10
34406;DHT22;20658;45.630;8.886;2022-07-19T09:34:40;35.30;30.20
34406;DHT22;20658;45.630;8.886;2022-07-19T09:37:18;35.40;30.50
34406;DHT22;20658;45.630;8.886;2022-07-19T09:39:55;35.40;30.20
34406;DHT22;20658;45.630;8.886;2022-07-19T09:42:35;35.40;30.60
34406;DHT22;20658;45.630;8.886;2022-07-19T09:45:11;35.60;30.10
34406;DHT22;20658;45.630;8.886;2022-07-19T09:47:46;35.70;29.70
34406;DHT22;20658;45.630;8.886;2022-07-19T09:50:22;35.60;30.00
34406;DHT22;20658;45.630;8.886;2022-07-19T09:52:58;35.80;29.50
34406;DHT22;20658;45.630;8.886;2022-07-19T09:55:34;35.70;29.70
34406;DHT22;20658;45.630;8.886;2022-07-19T09:58:08;35.70;29.80
34406;DHT22;20658;45.630;8.886;2022-07-19T10:00:43;35.70;29.80
34406;DHT22;20658;45.630;8.886;2022-07-19T10:03:17;35.50;30.30
34406;DHT22;20658;45.630;8.886;2022-07-19T10:05:51;35.60;29.90
34406;DHT22;20658;45.630;8.886;2022-07-19T10:08:26;35.90;29.70
34406;DHT22;20658;45.630;8.886;2022-07-19T10:10:59;36.20;29.90
34406;DHT22;20658;45.630;8.886;2022-07-19T10:13:33;36.30;29.50
34406;DHT22;20658;45.630;8.886;2022-07-19T10:16:13;35.90;29.30
34406;DHT22;20658;45.630;8.886;2022-07-19T10:19:01;35.90;29.60
34406;DHT22;20658;45.630;8.886;2022-07-19T10:21:36;36.10;29.60
34406;DHT22;20658;45.630;8.886;2022-07-19T10:24:12;36.00;29.90
34406;DHT22;20658;45.630;8.886;2022-07-19T10:26:45;35.90;29.50
34406;DHT22;20658;45.630;8.886;2022-07-19T10:29:19;35.70;29.70
34406;DHT22;20658;45.630;8.886;2022-07-19T10:32:03;35.80;29.50
34406;DHT22;20658;45.630;8.886;2022-07-19T10:34:37;36.20;29.60
34406;DHT22;20658;45.630;8.886;2022-07-19T10:37:11;36.50;29.00
34406;DHT22;20658;45.630;8.886;2022-07-19T10:39:57;36.70;29.10
34406;DHT22;20658;45.630;8.886;2022-07-19T10:42:30;36.40;29.00
34406;DHT22;20658;45.630;8.886;2022-07-19T10:45:16;36.40;29.20
34406;DHT22;20658;45.630;8.886;2022-07-19T10:48:13;35.90;29.20
34406;DHT22;20658;45.630;8.886;2022-07-19T10:50:57;36.50;29.30
34406;DHT22;20658;45.630;8.886;2022-07-19T10:54:01;36.80;28.70
34406;DHT22;20658;45.630;8.886;2022-07-19T10:56:41;36.90;27.90
34406;DHT22;20658;45.630;8.886;2022-07-19T10:59:32;37.10;28.50
34406;DHT22;20658;45.630;8.886;2022-07-19T11:02:22;37.30;28.10
34406;DHT22;20658;45.630;8.886;2022-07-19T11:04:56;37.40;27.80
34406;DHT22;20658;45.630;8.886;2022-07-19T11:07:30;37.30;28.30
34406;DHT22;20658;45.630;8.886;2022-07-19T11:10:04;37.40;27.80
34406;DHT22;20658;45.630;8.886;2022-07-19T11:12:39;37.60;28.10
34406;DHT22;20658;45.630;8.886;2022-07-19T11:15:15;37.80;27.30
34406;DHT22;20658;45.630;8.886;2022-07-19T11:17:54;38.00;27.50
34406;DHT22;20658;45.630;8.886;2022-07-19T11:20:30;37.80;27.00
34406;DHT22;20658;45.630;8.886;2022-07-19T11:23:04;37.60;27.20
34406;DHT22;20658;45.630;8.886;2022-07-19T11:25:38;37.20;28.00
34406;DHT22;20658;45.630;8.886;2022-07-19T11:28:21;37.40;27.80
34406;DHT22;20658;45.630;8.886;2022-07-19T11:30:56;37.50;27.70
34406;DHT22;20658;45.630;8.886;2022-07-19T11:33:29;37.50;27.60
34406;DHT22;20658;45.630;8.886;2022-07-19T11:36:04;38.10;27.90
34406;DHT22;20658;45.630;8.886;2022-07-19T11:38:39;38.30;27.10
34406;DHT22;20658;45.630;8.886;2022-07-19T11:41:15;38.60;26.90
34406;DHT22;20658;45.630;8.886;2022-07-19T11:43:56;38.60;26.70
34406;DHT22;20658;45.630;8.886;2022-07-19T11:46:31;38.30;26.60
34406;DHT22;20658;45.630;8.886;2022-07-19T11:49:08;38.60;26.90
34406;DHT22;20658;45.630;8.886;2022-07-19T11:51:42;38.80;26.70
34406;DHT22;20658;45.630;8.886;2022-07-19T11:54:16;38.50;26.80
34406;DHT22;20658;45.630;8.886;2022-07-19T11:56:49;38.50;27.00
34406;DHT22;20658;45.630;8.886;2022-07-19T11:59:19;38.70;26.40
34406;DHT22;20658;45.630;8.886;2022-07-19T12:01:54;39.00;26.40
34406;DHT22;20658;45.630;8.886;2022-07-19T12:04:36;39.20;26.30
34406;DHT22;20658;45.630;8.886;2022-07-19T12:07:10;39.30;26.30
34406;DHT22;20658;45.630;8.886;2022-07-19T12:09:43;39.50;25.70
34406;DHT22;20658;45.630;8.886;2022-07-19T12:12:17;39.50;25.60
34406;DHT22;20658;45.630;8.886;2022-07-19T12:15:05;39.60;25.60
34406;DHT22;20658;45.630;8.886;2022-07-19T12:17:39;39.60;25.80
34406;DHT22;20658;45.630;8.886;2022-07-19T12:20:28;39.70;25.60
34406;DHT22;20658;45.630;8.886;2022-07-19T12:23:11;39.40;25.60
34406;DHT22;20658;45.630;8.886;2022-07-19T12:25:46;38.70;25.90
34406;DHT22;20658;45.630;8.886;2022-07-19T12:28:25;38.50;26.40
34406;DHT22;20658;45.630;8.886;2022-07-19T12:31:04;38.50;26.70
34406;DHT22;20658;45.630;8.886;2022-07-19T12:33:38;39.00;26.00
34406;DHT22;20658;45.630;8.886;2022-07-19T12:36:36;39.30;25.70
34406;DHT22;20658;45.630;8.886;2022-07-19T12:39:22;39.00;25.60
34406;DHT22;20658;45.630;8.886;2022-07-19T12:42:03;39.00;26.20
34406;DHT22;20658;45.630;8.886;2022-07-19T12:44:37;39.10;25.60
34406;DHT22;20658;45.630;8.886;2022-07-19T12:47:13;39.10;25.70
34406;DHT22;20658;45.630;8.886;2022-07-19T12:49:48;39.10;25.60
34406;DHT22;20658;45.630;8.886;2022-07-19T12:52:22;39.00;25.90
34406;DHT22;20658;45.630;8.886;2022-07-19T12:54:55;39.20;25.50
34406;DHT22;20658;45.630;8.886;2022-07-19T12:57:29;39.60;25.50
34406;DHT22;20658;45.630;8.886;2022-07-19T13:00:06;40.00;24.90
34406;DHT22;20658;45.630;8.886;2022-07-19T13:02:41;39.90;24.00
34406;DHT22;20658;45.630;8.886;2022-07-19T13:05:16;39.70;24.60
34406;DHT22;20658;45.630;8.886;2022-07-19T13:07:50;39.60;24.90
34406;DHT22;20658;45.630;8.886;2022-07-19T13:10:24;39.70;24.70
34406;DHT22;20658;45.630;8.886;2022-07-19T13:12:58;39.50;24.80
34406;DHT22;20658;45.630;8.886;2022-07-19T13:15:31;39.40;25.20
34406;DHT22;20658;45.630;8.886;2022-07-19T13:18:06;39.60;24.70
34406;DHT22;20658;45.630;8.886;2022-07-19T13:20:39;39.50;24.80
34406;DHT22;20658;45.630;8.886;2022-07-19T13:23:13;39.70;24.40
34406;DHT22;20658;45.630;8.886;2022-07-19T13:25:46;40.10;24.40
34406;DHT22;20658;45.630;8.886;2022-07-19T13:28:20;39.90;23.70
34406;DHT22;20658;45.630;8.886;2022-07-19T13:30:53;39.90;24.00
34406;DHT22;20658;45.630;8.886;2022-07-19T13:33:28;40.00;24.50
34406;DHT22;20658;45.630;8.886;2022-07-19T13:36:02;39.80;24.60
34406;DHT22;20658;45.630;8.886;2022-07-19T13:38:35;39.90;24.00
34406;DHT22;20658;45.630;8.886;2022-07-19T13:41:10;39.80;24.20
34406;DHT22;20658;45.630;8.886;2022-07-19T13:43:44;40.00;24.90
34406;DHT22;20658;45.630;8.886;2022-07-19T13:46:17;40.40;24.30
34406;DHT22;20658;45.630;8.886;2022-07-19T13:48:52;40.40;23.60
34406;DHT22;20658;45.630;8.886;2022-07-19T13:51:26;40.50;23.90
34406;DHT22;20658;45.630;8.886;2022-07-19T13:53:59;40.20;23.80
34406;DHT22;20658;45.630;8.886;2022-07-19T13:56:33;39.70;23.80
34406;DHT22;20658;45.630;8.886;2022-07-19T13:59:07;39.60;24.20
34406;DHT22;20658;45.630;8.886;2022-07-19T14:01:40;40.00;24.50
34406;DHT22;20658;45.630;8.886;2022-07-19T14:04:15;39.60;23.50
34406;DHT22;20658;45.630;8.886;2022-07-19T14:06:49;39.10;25.10
34406;DHT22;20658;45.630;8.886;2022-07-19T14:09:22;39.20;24.80
34406;DHT22;20658;45.630;8.886;2022-07-19T14:11:56;39.70;24.40
34406;DHT22;20658;45.630;8.886;2022-07-19T14:14:29;39.90;23.60
34406;DHT22;20658;45.630;8.886;2022-07-19T14:17:02;40.10;24.00
34406;DHT22;20658;45.630;8.886;2022-07-19T14:19:37;40.10;23.80
34406;DHT22;20658;45.630;8.886;2022-07-19T14:22:11;39.90;23.60
34406;DHT22;20658;45.630;8.886;2022-07-19T14:24:44;40.00;24.10
34406;DHT22;20658;45.630;8.886;2022-07-19T14:27:18;40.30;24.00
34406;DHT22;20658;45.630;8.886;2022-07-19T14:29:51;40.40;23.30
34406;DHT22;20658;45.630;8.886;2022-07-19T14:32:25;40.00;23.80
34406;DHT22;20658;45.630;8.886;2022-07-19T14:35:00;40.00;23.70
34406;DHT22;20658;45.630;8.886;2022-07-19T14:37:33;40.40;23.80
34406;DHT22;20658;45.630;8.886;2022-07-19T14:40:07;40.30;23.40
34406;DHT22;20658;45.630;8.886;2022-07-19T14:42:41;40.40;23.60
34406;DHT22;20658;45.630;8.886;2022-07-19T14:45:15;40.50;23.40
34406;DHT22;20658;45.630;8.886;2022-07-19T14:47:48;40.60;23.20
34406;DHT22;20658;45.630;8.886;2022-07-19T14:50:23;40.70;23.00
34406;DHT22;20658;45.630;8.886;2022-07-19T14:52:57;40.50;22.90
34406;DHT22;20658;45.630;8.886;2022-07-19T14:55:30;40.50;23.00
34406;DHT22;20658;45.630;8.886;2022-07-19T14:58:04;40.30;23.40
34406;DHT22;20658;45.630;8.886;2022-07-19T15:00:37;40.30;23.60
34406;DHT22;20658;45.630;8.886;2022-07-19T15:03:10;40.60;23.30
34406;DHT22;20658;45.630;8.886;2022-07-19T15:05:45;40.50;23.30
34406;DHT22;20658;45.630;8.886;2022-07-19T15:08:19;40.50;23.40
34406;DHT22;20658;45.630;8.886;2022-07-19T15:10:52;40.40;23.30
34406;DHT22;20658;45.630;8.886;2022-07-19T15:13:26;40.40;23.40
34406;DHT22;20658;45.630;8.886;2022-07-19T15:15:59;40.30;23.40
34406;DHT22;20658;45.630;8.886;2022-07-19T15:18:32;40.20;23.40
34406;DHT22;20658;45.630;8.886;2022-07-19T15:21:08;40.00;23.70
34406;DHT22;20658;45.630;8.886;2022-07-19T15:23:41;40.10;23.70
34406;DHT22;20658;45.630;8.886;2022-07-19T15:26:15;40.10;23.70
34406;DHT22;20658;45.630;8.886;2022-07-19T15:28:48;40.50;23.20
34406;DHT22;20658;45.630;8.886;2022-07-19T15:31:22;40.40;23.30
34406;DHT22;20658;45.630;8.886;2022-07-19T15:33:56;40.60;23.00
34406;DHT22;20658;45.630;8.886;2022-07-19T15:36:31;40.60;23.00
34406;DHT22;20658;45.630;8.886;2022-07-19T15:39:05;40.50;23.30
34406;DHT22;20658;45.630;8.886;2022-07-19T15:41:39;40.60;23.10
34406;DHT22;20658;45.630;8.886;2022-07-19T15:44:13;40.50;23.60
34406;DHT22;20658;45.630;8.886;2022-07-19T15:46:46;40.60;23.30
34406;DHT22;20658;45.630;8.886;2022-07-19T15:49:19;40.50;22.90
34406;DHT22;20658;45.630;8.886;2022-07-19T15:51:54;39.70;23.40
34406;DHT22;20658;45.630;8.886;2022-07-19T15:54:28;40.10;23.80
34406;DHT22;20658;45.630;8.886;2022-07-19T15:57:01;40.50;23.30
34406;DHT22;20658;45.630;8.886;2022-07-19T15:59:35;40.80;23.20
34406;DHT22;20658;45.630;8.886;2022-07-19T16:02:08;40.80;22.90
34406;DHT22;20658;45.630;8.886;2022-07-19T16:04:42;40.80;22.90
34406;DHT22;20658;45.630;8.886;2022-07-19T16:07:17;40.80;23.20
34406;DHT22;20658;45.630;8.886;2022-07-19T16:09:51;40.50;23.30
34406;DHT22;20658;45.630;8.886;2022-07-19T16:12:24;40.20;23.60
34406;DHT22;20658;45.630;8.886;2022-07-19T16:14:58;40.00;23.90
34406;DHT22;20658;45.630;8.886;2022-07-19T16:17:32;40.20;24.00